Time;durP1;ratioP1;P1;durP2;ratioP2;P2;SDS_P1;SDS_P2;PMS_P1;PMS_P2;Temp;Humidity;BMP_temperature;BMP_pressure;BME280_temperature;BME280_humidity;BME280_pressure;Samples;Min_cycle;Max_cycle;Signal;HPM_P1;HPM_P2
2023/09/05 00:01:29;;;;;;;;;;;;;;;18.03;72.76;100796.72;5068114;28;5401;-77
2023/09/05 00:04:21;;;;;;;;;;;;;;;18.02;72.72;100795.06;5072888;28;1665;-77
2023/09/05 00:07:13;;;;;;;;;;;;;;;18.03;72.59;100801.31;5067838;28;1706;-78
2023/09/05 00:10:04;;;;;;;;;;;;;;;18.00;72.67;100794.53;5070159;28;1803;-76
2023/09/05 00:12:55;;;;;;;;;;;;;;;18.00;72.79;100794.53;5067849;28;1672;-78
2023/09/05 00:15:47;;;;;;;;;;;;;;;18.00;72.86;100794.53;5067587;28;1717;-78
2023/09/05 00:18:39;;;;;;;;;;;;;;;17.99;72.83;100797.50;5067503;28;1800;-77
2023/09/05 00:21:31;;;;;;;;;;;;;;;17.98;72.77;100788.50;5063614;22;4118;-77
2023/09/05 00:24:22;;;;;;;;;;;;;;;17.97;72.55;100786.88;4992044;28;1722;-77
2023/09/05 00:27:14;;;;;;;;;;;;;;;17.97;72.54;100788.75;4988573;28;1753;-76
2023/09/05 00:30:06;;;;;;;;;;;;;;;17.97;72.61;100780.59;4990100;28;2042;-76
2023/09/05 00:32:57;;;;;;;;;;;;;;;17.95;72.44;100778.13;4974221;28;2101;-77
2023/09/05 00:35:49;;;;;;;;;;;;;;;17.94;72.55;100773.75;4985125;28;2183;-78
2023/09/05 00:38:42;;;;;;;;;;;;;;;17.94;72.46;100784.66;4982273;28;2613;-77
2023/09/05 00:41:34;;;;;;;;;;;;;;;17.92;72.76;100784.94;4979669;28;2221;-78
2023/09/05 00:44:26;;;;;;;;;;;;;;;17.92;72.61;100778.66;4978968;28;2253;-78
2023/09/05 00:47:22;;;;;;;;;;;;;;;17.92;72.58;100778.66;4976752;28;2232;-75
2023/09/05 00:50:18;;;;;;;;;;;;;;;17.91;72.38;100782.44;4974977;28;2248;-76
2023/09/05 00:53:09;;;;;;;;;;;;;;;17.91;72.34;100779.72;4978798;28;2447;-77
2023/09/05 00:56:00;;;;;;;;;;;;;;;17.89;72.73;100787.38;4976196;28;2232;-75
2023/09/05 00:58:52;;;;;;;;;;;;;;;17.88;72.56;100783.81;4973859;28;2229;-75
2023/09/05 01:01:44;;;;;;;;;;;;;;;17.88;72.34;100785.69;4978441;28;2270;-78
2023/09/05 01:04:36;;;;;;;;;;;;;;;17.88;72.38;100791.16;4976196;28;2043;-77
2023/09/05 01:07:27;;;;;;;;;;;;;;;17.88;72.26;100796.59;4980866;28;2125;-77
2023/09/05 01:10:19;;;;;;;;;;;;;;;17.87;72.25;100795.78;4977597;28;2274;-78
2023/09/05 01:13:10;;;;;;;;;;;;;;;17.86;72.58;100793.34;4977652;28;2269;-80
2023/09/05 01:16:02;;;;;;;;;;;;;;;17.84;72.25;100799.03;4978402;28;2312;-78
2023/09/05 01:18:54;;;;;;;;;;;;;;;17.84;72.23;100803.66;4976656;28;2467;-79
2023/09/05 01:21:45;;;;;;;;;;;;;;;17.83;72.26;100802.84;4972937;28;2240;-76
2023/09/05 01:24:38;;;;;;;;;;;;;;;17.84;72.21;100795.50;4986111;28;2204;-77
2023/09/05 01:27:30;;;;;;;;;;;;;;;17.82;72.22;100798.47;4985017;28;1768;-77
2023/09/05 01:30:21;;;;;;;;;;;;;;;17.81;72.28;100785.13;4985415;28;1759;-77
2023/09/05 01:33:13;;;;;;;;;;;;;;;17.81;72.44;100796.84;5001656;28;1741;-77
2023/09/05 01:36:04;;;;;;;;;;;;;;;17.80;72.22;100787.03;4986335;28;1711;-78
2023/09/05 01:38:55;;;;;;;;;;;;;;;17.79;72.21;100773.66;4986110;28;1687;-77
2023/09/05 01:41:46;;;;;;;;;;;;;;;17.78;72.24;100785.66;4992868;28;1914;-77
2023/09/05 01:44:38;;;;;;;;;;;;;;;17.77;72.20;100787.53;4985313;28;1812;-77
2023/09/05 01:47:30;;;;;;;;;;;;;;;17.76;72.31;100777.69;4985830;28;1814;-77
2023/09/05 01:50:23;;;;;;;;;;;;;;;17.75;72.40;100767.88;4986619;28;1860;-78
2023/09/05 01:53:14;;;;;;;;;;;;;;;17.74;72.17;100766.25;4989486;28;2265;-76
2023/09/05 01:56:05;;;;;;;;;;;;;;;17.75;72.32;100767.06;4974199;28;2152;-79
2023/09/05 01:58:58;;;;;;;;;;;;;;;17.74;72.12;100762.72;4973771;28;2319;-78
2023/09/05 02:01:49;;;;;;;;;;;;;;;17.73;72.16;100774.69;4972885;28;2219;-78
2023/09/05 02:04:41;;;;;;;;;;;;;;;17.72;72.17;100782.03;4970102;28;2504;-77
2023/09/05 02:07:33;;;;;;;;;;;;;;;17.72;72.11;100782.03;4971276;28;2259;-78
2023/09/05 02:10:24;;;;;;;;;;;;;;;17.70;72.10;100781.47;4973215;28;2216;-78
2023/09/05 02:13:17;;;;;;;;;;;;;;;17.69;72.04;100794.28;4971268;28;5838;-78
2023/09/05 02:16:09;;;;;;;;;;;;;;;17.69;72.14;100798.91;4972654;28;5532;-78
2023/09/05 02:19:00;;;;;;;;;;;;;;;17.68;72.18;100795.38;4971988;28;2232;-77
2023/09/05 02:21:53;;;;;;;;;;;;;;;17.67;72.15;100788.25;4973535;28;2358;-77
2023/09/05 02:24:44;;;;;;;;;;;;;;;17.66;72.26;100775.72;4979029;28;2300;-79
2023/09/05 02:27:36;;;;;;;;;;;;;;;17.65;72.09;100767.84;4985150;28;1774;-77
2023/09/05 02:30:30;;;;;;;;;;;;;;;17.64;72.02;100769.72;4988366;28;2572;-76
2023/09/05 02:33:21;;;;;;;;;;;;;;;17.65;72.05;100765.13;4984264;28;4632;-78
2023/09/05 02:36:15;;;;;;;;;;;;;;;17.63;72.07;100759.91;4988239;28;1710;-78
2023/09/05 02:39:06;;;;;;;;;;;;;;;17.63;72.16;100767.25;4985705;28;1795;-78
2023/09/05 02:41:58;;;;;;;;;;;;;;;17.62;72.19;100760.19;4984501;28;2386;-77
2023/09/05 02:44:50;;;;;;;;;;;;;;;17.61;72.18;100759.34;4968459;28;2216;-77
2023/09/05 02:47:43;;;;;;;;;;;;;;;17.61;71.92;100750.34;4972067;28;2422;-78
2023/09/05 02:50:34;;;;;;;;;;;;;;;17.60;72.07;100755.00;4970080;28;2255;-78
2023/09/05 02:53:26;;;;;;;;;;;;;;;17.59;72.14;100755.22;4971463;28;2442;-77
2023/09/05 02:56:18;;;;;;;;;;;;;;;17.58;71.89;100759.88;4970065;28;2251;-78
2023/09/05 02:59:09;;;;;;;;;;;;;;;17.58;71.81;100761.78;4974193;28;2108;-77
2023/09/05 03:02:01;;;;;;;;;;;;;;;17.57;71.99;100766.41;4971074;28;2250;-78
2023/09/05 03:04:53;;;;;;;;;;;;;;;17.57;72.07;100757.41;4969477;28;2504;-78
2023/09/05 03:07:46;;;;;;;;;;;;;;;17.56;72.09;100753.03;4973953;28;2216;-76
2023/09/05 03:10:37;;;;;;;;;;;;;;;17.54;71.89;100757.94;4972988;28;2200;-78
2023/09/05 03:13:29;;;;;;;;;;;;;;;17.54;72.11;100756.03;4979271;28;2310;-79
2023/09/05 03:16:22;;;;;;;;;;;;;;;17.53;71.83;100750.84;4974107;28;2275;-78
2023/09/05 03:19:14;;;;;;;;;;;;;;;17.52;71.87;100741.84;4972880;28;2248;-76
2023/09/05 03:22:05;;;;;;;;;;;;;;;17.52;71.78;100738.31;4971593;28;2517;-76
2023/09/05 03:24:57;;;;;;;;;;;;;;;17.51;72.00;100744.84;4974824;28;2370;-77
2023/09/05 03:27:50;;;;;;;;;;;;;;;17.50;72.04;100735.88;4973654;28;2264;-76
2023/09/05 03:30:41;;;;;;;;;;;;;;;17.50;71.97;100727.69;4976422;28;2211;-77
2023/09/05 03:33:33;;;;;;;;;;;;;;;17.49;71.75;100723.31;4972385;28;2153;-78
2023/09/05 03:36:27;;;;;;;;;;;;;;;17.47;72.04;100739.94;4988167;28;1881;-78
2023/09/05 03:39:18;;;;;;;;;;;;;;;17.48;71.72;100740.75;4971281;28;2225;-77
2023/09/05 03:42:10;;;;;;;;;;;;;;;17.46;71.78;100740.19;4978068;28;2280;-77
2023/09/05 03:45:01;;;;;;;;;;;;;;;17.45;71.80;100744.81;4974948;28;2445;-76
2023/09/05 03:47:54;;;;;;;;;;;;;;;17.45;71.89;100744.81;4976780;28;2117;-78
2023/09/05 03:50:45;;;;;;;;;;;;;;;17.45;71.73;100739.38;4970233;28;2554;-77
2023/09/05 03:53:37;;;;;;;;;;;;;;;17.44;71.75;100726.00;4974306;28;2314;-77
2023/09/05 03:56:29;;;;;;;;;;;;;;;17.45;71.94;100738.53;4976183;28;2334;-79
2023/09/05 03:59:20;;;;;;;;;;;;;;;17.43;71.76;100746.97;4974340;28;2187;-77
2023/09/05 04:02:12;;;;;;;;;;;;;;;17.43;71.85;100751.59;4972223;28;2490;-76
2023/09/05 04:05:04;;;;;;;;;;;;;;;17.42;71.70;100763.56;4971938;28;2198;-78
2023/09/05 04:07:55;;;;;;;;;;;;;;;17.41;71.84;100759.19;4972802;28;2385;-79
2023/09/05 04:10:47;;;;;;;;;;;;;;;17.41;71.73;100742.84;4974782;28;2184;-78
2023/09/05 04:13:39;;;;;;;;;;;;;;;17.39;71.57;100725.97;4992051;28;1870;-78
2023/09/05 04:16:31;;;;;;;;;;;;;;;17.38;71.83;100706.09;4986302;28;1788;-78
2023/09/05 04:19:23;;;;;;;;;;;;;;;17.38;71.68;100719.72;4990058;28;1689;-77
2023/09/05 04:22:15;;;;;;;;;;;;;;;17.37;71.62;100733.56;4984402;28;1907;-78
2023/09/05 04:25:06;;;;;;;;;;;;;;;17.37;71.77;100733.56;4993165;28;1724;-77
2023/09/05 04:27:59;;;;;;;;;;;;;;;17.37;71.58;100736.31;5000153;28;1695;-77
2023/09/05 04:30:51;;;;;;;;;;;;;;;17.36;71.77;100740.94;4989034;28;2084;-78
2023/09/05 04:33:42;;;;;;;;;;;;;;;17.35;71.52;100739.25;5001506;28;1751;-78
2023/09/05 04:36:36;;;;;;;;;;;;;;;17.35;71.71;100735.72;4988264;28;1753;-78
2023/09/05 04:39:27;;;;;;;;;;;;;;;17.35;71.60;100739.25;4984748;28;1823;-79
2023/09/05 04:42:18;;;;;;;;;;;;;;;17.34;71.64;100745.00;4980301;28;2259;-78
2023/09/05 04:45:10;;;;;;;;;;;;;;;17.33;71.54;100746.06;4979549;28;5919;-78
2023/09/05 04:48:02;;;;;;;;;;;;;;;17.32;71.40;100747.13;4975864;28;2234;-79
2023/09/05 04:50:53;;;;;;;;;;;;;;;17.32;71.51;100755.31;4972269;28;5046;-79
2023/09/05 04:53:46;;;;;;;;;;;;;;;17.30;71.42;100758.31;4974464;28;3799;-77
2023/09/05 04:56:37;;;;;;;;;;;;;;;17.31;71.75;100750.94;4973424;28;2297;-79
2023/09/05 04:59:29;;;;;;;;;;;;;;;17.29;71.62;100755.81;4973185;28;2247;-76
2023/09/05 05:02:21;;;;;;;;;;;;;;;17.30;71.42;100746.59;4975731;28;5110;-78
2023/09/05 05:05:12;;;;;;;;;;;;;;;17.28;71.52;100749.56;4974073;28;2390;-78
2023/09/05 05:08:04;;;;;;;;;;;;;;;17.27;71.58;100739.78;4983307;28;2299;-76
2023/09/05 05:10:55;;;;;;;;;;;;;;;17.27;71.41;100745.22;4981124;28;2248;-78
2023/09/05 05:13:46;;;;;;;;;;;;;;;17.27;71.77;100758.81;4972972;28;2395;-77
2023/09/05 05:16:38;;;;;;;;;;;;;;;17.25;71.62;100755.53;4978031;28;2129;-77
2023/09/05 05:19:30;;;;;;;;;;;;;;;17.25;71.59;100755.53;4971812;28;2341;-78
2023/09/05 05:22:23;;;;;;;;;;;;;;;17.23;71.54;100765.84;4972762;28;2279;-78
2023/09/05 05:25:14;;;;;;;;;;;;;;;17.23;71.31;100768.56;4984059;28;2442;-78
2023/09/05 05:28:07;;;;;;;;;;;;;;;17.23;71.56;100771.28;4986134;28;2519;-79
2023/09/05 05:30:58;;;;;;;;;;;;;;;17.23;71.40;100782.19;4993279;28;1778;-76
2023/09/05 05:33:50;;;;;;;;;;;;;;;17.21;71.55;100785.16;4998603;28;2410;-77
2023/09/05 05:36:43;;;;;;;;;;;;;;;17.20;71.45;100790.84;4993069;28;1679;-76
2023/09/05 05:39:34;;;;;;;;;;;;;;;17.20;71.28;100790.84;4979807;28;1890;-76
2023/09/05 05:42:27;;;;;;;;;;;;;;;17.20;71.26;100788.94;5000391;28;1906;-77
2023/09/05 05:45:18;;;;;;;;;;;;;;;17.19;71.35;100784.59;5008520;28;916;-77
2023/09/05 05:48:11;;;;;;;;;;;;;;;17.18;71.45;100780.25;4998289;28;947;-78
2023/09/05 05:51:03;;;;;;;;;;;;;;;17.18;71.41;100774.00;4996100;28;1750;-78
2023/09/05 05:53:55;;;;;;;;;;;;;;;17.16;71.51;100768.78;5015049;28;1213;-77
2023/09/05 05:56:47;;;;;;;;;;;;;;;17.16;71.38;100770.69;4998721;28;2875;-75
2023/09/05 05:59:40;;;;;;;;;;;;;;;17.16;71.32;100765.25;4981882;28;2275;-77
2023/09/05 06:02:32;;;;;;;;;;;;;;;17.15;71.46;100777.22;4997601;28;1967;-78
2023/09/05 06:05:23;;;;;;;;;;;;;;;17.15;71.48;100780.75;4998784;28;1921;-78
2023/09/05 06:08:15;;;;;;;;;;;;;;;17.14;71.38;100781.00;4998544;28;1047;-76
2023/09/05 06:11:07;;;;;;;;;;;;;;;17.13;71.32;100782.09;4982196;28;2410;-76
2023/09/05 06:14:00;;;;;;;;;;;;;;;17.12;71.23;100781.28;5034983;28;2346;-75
2023/09/05 06:16:51;;;;;;;;;;;;;;;17.12;71.38;100780.44;4977704;28;5911;-77
2023/09/05 06:19:43;;;;;;;;;;;;;;;17.11;71.35;100765.19;4995787;28;1850;-77
2023/09/05 06:22:35;;;;;;;;;;;;;;;17.10;71.26;100755.41;4979237;28;1973;-74
2023/09/05 06:25:28;;;;;;;;;;;;;;;17.09;71.35;100768.19;4978162;28;1611;-74
2023/09/05 06:28:19;;;;;;;;;;;;;;;17.09;71.24;100772.78;4974474;28;1563;-77
2023/09/05 06:31:11;;;;;;;;;;;;;;;17.09;71.18;100778.22;4976697;28;2150;-78
2023/09/05 06:34:02;;;;;;;;;;;;;;;17.09;71.33;100775.50;4979531;28;3536;-75
2023/09/05 06:36:54;;;;;;;;;;;;;;;17.07;71.34;100781.22;4967939;28;3505;-75
2023/09/05 06:39:47;;;;;;;;;;;;;;;17.07;71.30;100786.66;4978514;28;3576;-74
2023/09/05 06:42:39;;;;;;;;;;;;;;;17.06;71.28;100785.03;4967040;28;1910;-76
2023/09/05 06:45:30;;;;;;;;;;;;;;;17.06;71.33;100781.47;4966197;28;1413;-77
2023/09/05 06:48:21;;;;;;;;;;;;;;;17.05;71.15;100780.66;4972388;28;2500;-78
2023/09/05 06:51:13;;;;;;;;;;;;;;;17.05;71.21;100774.38;4975801;28;1846;-79
2023/09/05 06:54:04;;;;;;;;;;;;;;;17.03;71.33;100780.91;4962981;28;2554;-75
2023/09/05 06:56:56;;;;;;;;;;;;;;;17.05;71.26;100785.28;4964338;28;2145;-75
2023/09/05 06:59:48;;;;;;;;;;;;;;;17.03;71.13;100791.00;4969292;28;2581;-76
2023/09/05 07:02:40;;;;;;;;;;;;;;;17.03;71.27;100785.53;4963096;28;2186;-77
2023/09/05 07:05:32;;;;;;;;;;;;;;;17.02;71.12;100790.13;4964112;28;2125;-77
2023/09/05 07:08:24;;;;;;;;;;;;;;;17.03;71.15;100796.44;4962681;28;2215;-79
2023/09/05 07:11:16;;;;;;;;;;;;;;;17.02;71.25;100787.41;4964193;28;2180;-78
2023/09/05 07:14:09;;;;;;;;;;;;;;;17.01;71.31;100799.41;4961565;28;2158;-75
2023/09/05 07:17:00;;;;;;;;;;;;;;;17.02;71.24;100794.75;4961998;28;2217;-79
2023/09/05 07:19:52;;;;;;;;;;;;;;;17.01;71.00;100804.03;4965245;28;2380;-75
2023/09/05 07:22:43;;;;;;;;;;;;;;;17.00;71.14;100811.38;4973130;28;2420;-79
2023/09/05 07:25:35;;;;;;;;;;;;;;;17.00;71.12;100808.63;4975727;28;2251;-78
2023/09/05 07:28:26;;;;;;;;;;;;;;;16.98;71.25;100816.22;4973289;28;2331;-77
2023/09/05 07:31:18;;;;;;;;;;;;;;;16.99;71.20;100825.22;4975756;28;2374;-79
2023/09/05 07:34:10;;;;;;;;;;;;;;;16.99;71.22;100827.94;4976128;28;2121;-77
2023/09/05 07:37:03;;;;;;;;;;;;;;;16.99;71.11;100822.47;4974612;28;2253;-77
2023/09/05 07:39:55;;;;;;;;;;;;;;;16.98;71.14;100823.56;4973650;28;2293;-78
2023/09/05 07:42:47;;;;;;;;;;;;;;;16.97;71.18;100820.03;4976201;28;2220;-77
2023/09/05 07:45:39;;;;;;;;;;;;;;;16.98;71.26;100820.84;4974923;28;2220;-76
2023/09/05 07:48:30;;;;;;;;;;;;;;;16.97;70.93;100805.59;4987247;28;2259;-76
2023/09/05 07:51:22;;;;;;;;;;;;;;;16.97;71.05;100819.19;4977420;28;2202;-79
2023/09/05 07:54:16;;;;;;;;;;;;;;;16.97;71.13;100824.63;4980025;28;2121;-76
2023/09/05 07:57:11;;;;;;;;;;;;;;;16.96;71.04;100823.00;4977604;28;2259;-78
2023/09/05 08:00:03;;;;;;;;;;;;;;;16.96;71.21;100831.97;4977818;28;2430;-76
2023/09/05 08:02:54;;;;;;;;;;;;;;;16.96;71.27;100829.25;4978038;28;2531;-77
2023/09/05 08:05:46;;;;;;;;;;;;;;;16.96;71.13;100831.97;4976574;28;2196;-77
2023/09/05 08:08:37;;;;;;;;;;;;;;;16.96;71.04;100829.25;4977514;28;2149;-78
2023/09/05 08:11:28;;;;;;;;;;;;;;;16.97;71.12;100835.50;4976337;28;2100;-77
2023/09/05 08:14:21;;;;;;;;;;;;;;;16.97;71.17;100833.63;4976028;28;2532;-77
2023/09/05 08:17:13;;;;;;;;;;;;;;;16.97;70.76;100852.69;4977673;28;3836;-77
2023/09/05 08:20:04;;;;;;;;;;;;;;;16.98;71.24;100848.06;4977604;28;5407;-78
2023/09/05 08:22:57;;;;;;;;;;;;;;;16.99;71.13;100833.38;4982486;28;2143;-76
2023/09/05 08:25:51;;;;;;;;;;;;;;;16.99;71.04;100827.94;4982776;28;2180;-76
2023/09/05 08:28:44;;;;;;;;;;;;;;;17.00;71.19;100837.72;4981052;28;2572;-78
2023/09/05 08:31:35;;;;;;;;;;;;;;;16.99;71.32;100836.91;4984212;28;2430;-76
2023/09/05 08:34:28;;;;;;;;;;;;;;;17.00;71.18;100837.72;4984546;28;2486;-76
2023/09/05 08:37:20;;;;;;;;;;;;;;;17.00;71.00;100846.72;4983267;28;4035;-77
2023/09/05 08:40:12;;;;;;;;;;;;;;;17.00;71.21;100845.88;4980826;28;2130;-76
2023/09/05 08:43:04;;;;;;;;;;;;;;;17.00;71.05;100841.28;4983230;28;2263;-75
2023/09/05 08:45:56;;;;;;;;;;;;;;;17.00;71.12;100844.00;4982493;28;2265;-76
2023/09/05 08:48:49;;;;;;;;;;;;;;;17.02;71.18;100858.16;4980412;28;2227;-76
2023/09/05 08:51:40;;;;;;;;;;;;;;;17.02;71.28;100857.34;4981405;28;2126;-76
2023/09/05 08:54:33;;;;;;;;;;;;;;;17.02;71.21;100854.63;4983779;28;2178;-76
2023/09/05 08:57:25;;;;;;;;;;;;;;;17.02;71.32;100849.19;4980847;28;2490;-78
2023/09/05 09:00:17;;;;;;;;;;;;;;;17.02;71.02;100841.03;4983495;28;2230;-78
2023/09/05 09:03:09;;;;;;;;;;;;;;;17.03;71.23;100829.06;4981217;28;2172;-75
2023/09/05 09:06:02;;;;;;;;;;;;;;;17.04;71.14;100838.88;4984133;28;3586;-76
2023/09/05 09:08:54;;;;;;;;;;;;;;;17.03;71.23;100838.06;4980995;28;2238;-77
2023/09/05 09:11:45;;;;;;;;;;;;;;;17.05;71.06;100836.97;4979922;28;2371;-77
2023/09/05 09:14:37;;;;;;;;;;;;;;;17.06;71.21;100835.88;4982412;28;2478;-77
2023/09/05 09:17:28;;;;;;;;;;;;;;;17.04;71.32;100822.56;4996704;28;2191;-77
2023/09/05 09:20:22;;;;;;;;;;;;;;;17.07;71.29;100829.38;4992179;28;1683;-77
2023/09/05 09:23:14;;;;;;;;;;;;;;;17.09;71.40;100825.34;4981051;28;2675;-75
2023/09/05 09:26:05;;;;;;;;;;;;;;;16.77;71.26;100763.50;4975077;28;2237;-78
2023/09/05 09:28:58;;;;;;;;;;;;;;;17.13;71.45;100825.63;4972572;28;2181;-78
2023/09/05 09:31:50;;;;;;;;;;;;;;;17.13;71.29;100815.56;4978744;28;2210;-77
2023/09/05 09:34:42;;;;;;;;;;;;;;;17.14;71.38;100808.22;4973672;28;2472;-76
2023/09/05 09:37:34;;;;;;;;;;;;;;;17.14;71.35;100816.38;4974311;28;2449;-77
2023/09/05 09:40:26;;;;;;;;;;;;;;;17.13;71.33;100818.28;4971207;28;2267;-77
2023/09/05 09:43:18;;;;;;;;;;;;;;;17.14;71.42;100830.81;4972325;28;2236;-76
2023/09/05 09:46:10;;;;;;;;;;;;;;;17.15;71.24;100831.66;4974536;28;2161;-77
2023/09/05 09:49:02;;;;;;;;;;;;;;;17.15;71.34;100829.75;4972630;28;2217;-75
2023/09/05 09:51:55;;;;;;;;;;;;;;;17.16;71.44;100834.09;4974110;28;2417;-76
2023/09/05 09:54:46;;;;;;;;;;;;;;;17.16;71.37;100838.72;4972683;28;2192;-74
2023/09/05 09:57:39;;;;;;;;;;;;;;;17.18;71.44;100831.94;4973257;28;2745;-75
2023/09/05 10:00:32;;;;;;;;;;;;;;;17.18;71.46;100842.84;4991064;28;2201;-77
2023/09/05 10:03:24;;;;;;;;;;;;;;;17.19;71.47;100838.22;4972168;28;2121;-77
2023/09/05 10:06:15;;;;;;;;;;;;;;;17.19;71.40;100832.78;4975092;28;5686;-77
2023/09/05 10:09:07;;;;;;;;;;;;;;;17.19;71.52;100830.88;4973370;28;2233;-77
2023/09/05 10:11:59;;;;;;;;;;;;;;;17.20;71.32;100816.16;4981764;28;4587;-77
2023/09/05 10:14:51;;;;;;;;;;;;;;;17.21;71.27;100826.00;4989647;28;1773;-75
2023/09/05 10:17:42;;;;;;;;;;;;;;;17.29;71.15;100819.25;4990269;28;1857;-77
2023/09/05 10:20:35;;;;;;;;;;;;;;;17.30;70.93;100817.38;4985965;28;1365;-74
2023/09/05 10:23:26;;;;;;;;;;;;;;;17.28;70.79;100808.63;4984814;28;4620;-78
2023/09/05 10:26:18;;;;;;;;;;;;;;;17.30;70.81;100806.47;4987461;28;1814;-77
2023/09/05 10:29:09;;;;;;;;;;;;;;;17.31;70.84;100816.28;4989094;28;1781;-76
2023/09/05 10:32:00;;;;;;;;;;;;;;;17.31;70.92;100806.22;4994773;28;1618;-78
2023/09/05 10:34:54;;;;;;;;;;;;;;;17.32;70.87;100810.56;4997997;28;1763;-77
2023/09/05 10:37:46;;;;;;;;;;;;;;;17.33;70.99;100806.78;5004949;28;1703;-76
2023/09/05 10:40:38;;;;;;;;;;;;;;;17.34;71.02;100804.88;4999625;28;2054;-77
2023/09/05 10:43:30;;;;;;;;;;;;;;;17.35;70.86;100811.94;4999510;28;1906;-77
2023/09/05 10:46:25;;;;;;;;;;;;;;;17.35;71.08;100811.94;4999449;28;1378;-77
2023/09/05 10:49:17;;;;;;;;;;;;;;;17.36;71.02;100814.44;5001569;28;963;-77
2023/09/05 10:52:09;;;;;;;;;;;;;;;17.35;70.96;100818.22;4996624;28;2125;-77
2023/09/05 10:55:01;;;;;;;;;;;;;;;17.39;71.07;100818.53;4991268;28;1762;-76
2023/09/05 10:57:53;;;;;;;;;;;;;;;17.39;71.08;100818.53;4987893;28;2284;-76
2023/09/05 11:00:48;;;;;;;;;;;;;;;17.39;71.17;100811.19;4973166;28;2484;-76
2023/09/05 11:03:40;;;;;;;;;;;;;;;17.41;71.17;100814.47;4974471;28;2300;-76
2023/09/05 11:06:31;;;;;;;;;;;;;;;17.42;71.32;100802.50;4974079;28;2161;-78
2023/09/05 11:09:24;;;;;;;;;;;;;;;17.43;71.27;100806.84;5005220;28;2036;-75
2023/09/05 11:12:16;;;;;;;;;;;;;;;17.44;71.38;100808.53;4995776;28;1571;-76
2023/09/05 11:15:08;;;;;;;;;;;;;;;17.45;71.18;100812.88;4994174;28;1382;-77
2023/09/05 11:18:00;;;;;;;;;;;;;;;17.46;71.26;100802.78;4978126;28;2092;-75
2023/09/05 11:20:52;;;;;;;;;;;;;;;17.47;71.33;100816.16;4994017;28;1472;-76
2023/09/05 11:23:44;;;;;;;;;;;;;;;17.49;71.43;100813.97;4996044;28;1906;-77
2023/09/05 11:26:36;;;;;;;;;;;;;;;17.49;71.44;100813.97;4999480;28;1628;-75
2023/09/05 11:29:28;;;;;;;;;;;;;;;17.50;71.23;100798.50;5004534;28;1819;-75
2023/09/05 11:32:20;;;;;;;;;;;;;;;17.50;71.41;100798.50;4999257;28;1359;-75
2023/09/05 11:35:13;;;;;;;;;;;;;;;17.53;71.36;100800.69;4989547;28;3486;-76
2023/09/05 11:38:05;;;;;;;;;;;;;;;17.54;71.30;100801.50;4998149;28;3805;-76
2023/09/05 11:40:57;;;;;;;;;;;;;;;17.54;71.46;100805.06;4975650;28;2518;-76
2023/09/05 11:43:49;;;;;;;;;;;;;;;17.55;71.53;100806.69;4975262;28;2155;-78
2023/09/05 11:46:41;;;;;;;;;;;;;;;17.56;71.45;100816.50;4983458;28;2083;-78
2023/09/05 11:49:33;;;;;;;;;;;;;;;17.57;71.51;100822.78;4999645;28;1489;-75
2023/09/05 11:52:25;;;;;;;;;;;;;;;17.57;71.61;100823.59;4997724;28;2700;-74
2023/09/05 11:55:16;;;;;;;;;;;;;;;17.59;71.69;100824.16;5000337;28;1666;-75
2023/09/05 11:58:08;;;;;;;;;;;;;;;17.61;71.59;100811.09;4988517;28;2121;-76
2023/09/05 12:01:00;;;;;;;;;;;;;;;17.63;71.59;100810.84;4976948;28;2375;-75
2023/09/05 12:03:52;;;;;;;;;;;;;;;17.64;71.52;100823.38;4997700;28;1875;-76
2023/09/05 12:06:44;;;;;;;;;;;;;;;17.64;71.77;100810.56;4992728;28;1863;-75
2023/09/05 12:09:36;;;;;;;;;;;;;;;17.67;71.60;100811.94;5000252;28;1067;-76
2023/09/05 12:12:28;;;;;;;;;;;;;;;17.68;71.65;100810.88;5001796;28;1536;-76
2023/09/05 12:15:20;;;;;;;;;;;;;;;17.68;71.77;100806.25;4995730;28;1615;-76
2023/09/05 12:18:12;;;;;;;;;;;;;;;17.70;71.72;100805.97;5000451;28;1969;-75
2023/09/05 12:21:03;;;;;;;;;;;;;;;17.73;71.72;100799.19;4990923;28;1398;-76
2023/09/05 12:23:54;;;;;;;;;;;;;;;17.73;71.79;100810.91;5000114;28;1902;-77
2023/09/05 12:26:46;;;;;;;;;;;;;;;17.74;71.74;100809.03;5007406;28;1987;-76
2023/09/05 12:29:38;;;;;;;;;;;;;;;17.76;71.68;100807.66;4987296;28;1745;-76
2023/09/05 12:32:30;;;;;;;;;;;;;;;17.77;71.85;100808.50;4997265;28;1914;-75
2023/09/05 12:35:22;;;;;;;;;;;;;;;17.79;71.97;100809.06;5006491;28;5738;-74
2023/09/05 12:38:14;;;;;;;;;;;;;;;17.79;71.75;100807.16;4997979;28;5134;-76
2023/09/05 12:41:05;;;;;;;;;;;;;;;17.81;71.77;100796.03;5008622;28;5139;-76
2023/09/05 12:43:58;;;;;;;;;;;;;;;17.83;71.96;100804.75;4991615;28;2113;-76
2023/09/05 12:46:50;;;;;;;;;;;;;;;17.84;71.93;100800.94;4994908;28;1938;-77
2023/09/05 12:49:42;;;;;;;;;;;;;;;17.85;71.95;100806.16;4985959;28;2105;-77
2023/09/05 12:52:34;;;;;;;;;;;;;;;17.87;71.79;100797.69;4992934;28;4787;-76
2023/09/05 12:55:26;;;;;;;;;;;;;;;17.89;71.85;100798.25;4991947;28;1591;-77
2023/09/05 12:58:18;;;;;;;;;;;;;;;17.89;72.35;100790.91;4997959;28;1883;-77
2023/09/05 13:01:10;;;;;;;;;;;;;;;17.92;72.26;100795.00;4993063;28;1564;-76
2023/09/05 13:04:03;;;;;;;;;;;;;;;17.94;72.18;100798.28;4992561;28;1894;-75
2023/09/05 13:06:55;;;;;;;;;;;;;;;17.96;72.22;100787.94;5002684;28;1919;-75
2023/09/05 13:09:46;;;;;;;;;;;;;;;17.97;72.04;100777.84;5004022;28;1464;-76
2023/09/05 13:12:38;;;;;;;;;;;;;;;17.99;71.96;100784.69;4996422;28;1880;-76
2023/09/05 13:15:30;;;;;;;;;;;;;;;18.00;72.21;100785.50;4992005;28;2018;-75
2023/09/05 13:18:22;;;;;;;;;;;;;;;18.01;71.93;100782.53;4994756;28;2129;-75
2023/09/05 13:21:15;;;;;;;;;;;;;;;18.03;72.01;100785.81;4989791;28;1904;-75
2023/09/05 13:24:07;;;;;;;;;;;;;;;18.04;71.79;100776.56;4973553;28;2110;-75
2023/09/05 13:27:00;;;;;;;;;;;;;;;18.07;72.18;100777.94;4957951;28;2316;-77
2023/09/05 13:29:52;;;;;;;;;;;;;;;18.09;72.25;100781.22;4955690;28;2506;-77
2023/09/05 13:32:44;;;;;;;;;;;;;;;18.10;72.25;100782.84;4960519;28;2274;-75
2023/09/05 13:35:36;;;;;;;;;;;;;;;18.11;72.20;100771.66;4962756;28;2321;-75
2023/09/05 13:38:28;;;;;;;;;;;;;;;18.13;71.99;100766.78;4973631;28;2106;-75
2023/09/05 13:41:19;;;;;;;;;;;;;;;18.15;72.21;100769.25;4967623;28;933;-75
2023/09/05 13:44:11;;;;;;;;;;;;;;;18.16;71.98;100773.63;4975379;28;1899;-78
2023/09/05 13:47:04;;;;;;;;;;;;;;;18.18;71.89;100782.34;4969102;28;2088;-74
2023/09/05 13:49:56;;;;;;;;;;;;;;;18.20;72.54;100774.72;4955490;28;2186;-77
2023/09/05 13:52:48;;;;;;;;;;;;;;;18.22;72.29;100783.47;4977490;28;2033;-76
2023/09/05 13:55:40;;;;;;;;;;;;;;;18.24;72.41;100777.75;4979162;28;879;-76
2023/09/05 13:58:32;;;;;;;;;;;;;;;18.25;72.37;100780.19;4977251;28;1394;-77
2023/09/05 14:01:24;;;;;;;;;;;;;;;18.27;72.13;100777.22;4979086;28;1059;-76
2023/09/05 14:04:15;;;;;;;;;;;;;;;18.29;72.17;100785.94;4971519;28;3471;-75
2023/09/05 14:07:07;;;;;;;;;;;;;;;18.30;72.48;100788.41;4983350;28;3406;-76
2023/09/05 14:09:59;;;;;;;;;;;;;;;18.32;72.50;100791.72;4975098;28;3274;-77
2023/09/05 14:12:51;;;;;;;;;;;;;;;18.33;72.53;100785.16;4975108;28;2023;-75
2023/09/05 14:15:43;;;;;;;;;;;;;;;18.36;72.20;100789.25;4971883;28;1978;-78
2023/09/05 14:18:36;;;;;;;;;;;;;;;18.38;72.13;100792.53;4975152;28;1676;-77
2023/09/05 14:21:28;;;;;;;;;;;;;;;18.40;72.40;100798.53;4981394;28;1548;-75
2023/09/05 14:24:20;;;;;;;;;;;;;;;18.40;72.43;100787.63;4979681;28;2391;-77
2023/09/05 14:27:12;;;;;;;;;;;;;;;18.43;72.27;100791.75;4990428;28;915;-77
2023/09/05 14:30:05;;;;;;;;;;;;;;;18.45;72.19;100790.38;4999869;28;1299;-78
2023/09/05 14:32:57;;;;;;;;;;;;;;;18.47;72.57;100792.84;4977485;28;1960;-77
2023/09/05 14:35:49;;;;;;;;;;;;;;;18.48;72.59;100789.03;4981953;28;1789;-74
2023/09/05 14:38:40;;;;;;;;;;;;;;;18.50;72.19;100784.13;4985321;28;1329;-76
2023/09/05 14:41:33;;;;;;;;;;;;;;;18.51;72.16;100777.59;4976055;28;1031;-75
2023/09/05 14:44:24;;;;;;;;;;;;;;;18.54;72.23;100782.50;4981339;28;1898;-78
2023/09/05 14:47:17;;;;;;;;;;;;;;;18.55;72.39;100779.50;4981005;28;1039;-74
2023/09/05 14:50:09;;;;;;;;;;;;;;;18.57;72.56;100781.97;4984110;28;1992;-75
2023/09/05 14:53:01;;;;;;;;;;;;;;;18.58;72.67;100778.16;4975858;28;1389;-76
2023/09/05 14:55:53;;;;;;;;;;;;;;;18.61;72.27;100778.44;4975822;28;1104;-76